Time;durP1;ratioP1;P1;durP2;ratioP2;P2;SDS_P1;SDS_P2;PMS_P1;PMS_P2;Temp;Humidity;BMP_temperature;BMP_pressure;BME280_temperature;BME280_humidity;BME280_pressure;Samples;Min_cycle;Max_cycle;Signal;HPM_P1;HPM_P2
2023/05/02 00:00:36;;;;;;;4.47;1.50;;;13.30;99.90;;;;;;5014091;28;20174;-81
2023/05/02 00:03:05;;;;;;;3.72;1.52;;;13.30;99.90;;;;;;5012692;28;20302;-82
2023/05/02 00:05:30;;;;;;;3.40;1.60;;;13.30;99.90;;;;;;5013893;28;20156;-81
2023/05/02 00:07:56;;;;;;;3.92;1.70;;;13.30;99.90;;;;;;5013925;28;20564;-81
2023/05/02 00:10:22;;;;;;;4.18;1.80;;;13.30;99.90;;;;;;5013403;28;20179;-81
2023/05/02 00:12:48;;;;;;;4.30;1.90;;;13.20;99.90;;;;;;5028859;28;20190;-81
2023/05/02 00:15:13;;;;;;;4.10;1.67;;;13.20;99.90;;;;;;5013904;28;20190;-81
2023/05/02 00:17:40;;;;;;;4.85;1.70;;;13.30;99.90;;;;;;5013866;28;20264;-81
2023/05/02 00:20:08;;;;;;;3.95;1.80;;;13.20;99.90;;;;;;5012569;28;20278;-81
2023/05/02 00:22:34;;;;;;;4.20;1.65;;;13.20;99.90;;;;;;5013567;28;20171;-82
2023/05/02 00:25:00;;;;;;;1.98;1.42;;;13.20;99.90;;;;;;5013571;28;20240;-81
2023/05/02 00:27:26;;;;;;;6.28;1.60;;;13.20;99.90;;;;;;5013887;28;20171;-82
2023/05/02 00:29:52;;;;;;;4.30;1.67;;;13.10;99.90;;;;;;5013867;28;20179;-81
2023/05/02 00:32:18;;;;;;;4.22;1.90;;;13.20;99.90;;;;;;5012374;28;20182;-82
2023/05/02 00:34:44;;;;;;;4.10;1.90;;;13.10;99.90;;;;;;5016428;28;20515;-82
2023/05/02 00:37:10;;;;;;;3.53;1.70;;;13.10;99.90;;;;;;5032865;28;20215;-82
2023/05/02 00:39:36;;;;;;;4.55;1.90;;;13.10;99.90;;;;;;5028903;28;20566;-82
2023/05/02 00:42:03;;;;;;;4.35;1.83;;;13.10;99.90;;;;;;5017572;28;20265;-82
2023/05/02 00:44:28;;;;;;;4.75;2.25;;;13.00;99.90;;;;;;5016433;28;20172;-82
2023/05/02 00:46:55;;;;;;;3.92;1.80;;;13.00;99.90;;;;;;5016000;28;20190;-82
2023/05/02 00:49:21;;;;;;;5.88;2.30;;;13.00;99.90;;;;;;5017171;28;20207;-82
2023/05/02 00:51:47;;;;;;;5.60;2.95;;;13.00;99.90;;;;;;5017244;28;20637;-80
2023/05/02 00:54:13;;;;;;;4.25;2.60;;;12.90;99.90;;;;;;5015733;28;20179;-82
2023/05/02 00:56:39;;;;;;;6.43;3.00;;;12.90;99.90;;;;;;5017255;28;20215;-82
2023/05/02 00:59:07;;;;;;;7.25;3.00;;;12.80;99.90;;;;;;5016104;28;20172;-82
2023/05/02 01:01:50;;;;;;;5.03;2.50;;;12.80;99.90;;;;;;5015997;28;20183;-82
2023/05/02 01:04:30;;;;;;;6.43;2.17;;;12.70;99.90;;;;;;5017179;28;20175;-82
2023/05/02 01:07:12;;;;;;;6.80;2.60;;;12.70;99.90;;;;;;5016020;28;20175;-82
2023/05/02 01:10:16;;;;;;;5.53;2.78;;;12.60;99.90;;;;;;5015750;28;20206;-82
2023/05/02 01:12:59;;;;;;;4.18;2.80;;;12.50;99.90;;;;;;5015273;28;20190;-83
2023/05/02 01:15:25;;;;;;;6.57;3.03;;;12.50;99.90;;;;;;5017216;28;20199;-82
2023/05/02 01:17:55;;;;;;;11.25;3.40;;;12.50;99.90;;;;;;5017043;28;20207;-83
2023/05/02 01:20:24;;;;;;;5.13;2.72;;;12.50;99.90;;;;;;5016878;28;20605;-82
2023/05/02 01:22:53;;;;;;;6.05;2.90;;;12.50;99.90;;;;;;5015322;28;20219;-80
2023/05/02 01:25:22;;;;;;;4.85;3.03;;;12.40;99.90;;;;;;5015304;28;20580;-80
2023/05/02 01:28:25;;;;;;;4.72;2.42;;;12.40;99.90;;;;;;5016814;28;20222;-80
2023/05/02 01:30:55;;;;;;;5.55;2.92;;;12.30;99.90;;;;;;5015349;28;20256;-82
2023/05/02 01:33:23;;;;;;;3.92;2.22;;;12.30;99.90;;;;;;5015257;28;20723;-82
2023/05/02 01:35:51;;;;;;;6.03;2.47;;;12.40;99.90;;;;;;5015051;28;20179;-82
2023/05/02 01:38:18;;;;;;;4.25;2.50;;;12.40;99.90;;;;;;5015242;28;20206;-81
2023/05/02 01:40:45;;;;;;;5.63;2.30;;;12.30;99.90;;;;;;5016343;28;20276;-80
2023/05/02 01:43:17;;;;;;;3.25;2.28;;;12.30;99.90;;;;;;5014885;28;20180;-82
2023/05/02 01:45:46;;;;;;;6.68;2.40;;;12.30;99.90;;;;;;5015982;28;20213;-82
2023/05/02 01:48:13;;;;;;;3.50;2.17;;;12.30;99.90;;;;;;5015169;28;20633;-82
2023/05/02 01:50:43;;;;;;;3.97;2.30;;;12.20;99.90;;;;;;5016248;28;20182;-83
2023/05/02 01:53:12;;;;;;;4.82;2.45;;;12.20;99.90;;;;;;5014960;28;20171;-82
2023/05/02 01:55:42;;;;;;;5.30;2.50;;;12.30;99.90;;;;;;5014609;28;20186;-82
2023/05/02 02:00:45;;;;;;;5.32;2.30;;;12.30;99.90;;;;;;5096258;22;20301;-83
2023/05/02 02:03:13;;;;;;;3.47;1.90;;;12.30;99.90;;;;;;5016120;28;20229;-83
2023/05/02 02:05:40;;;;;;;8.15;2.05;;;12.30;99.90;;;;;;5016183;28;20179;-83
2023/05/02 02:08:07;;;;;;;7.13;2.80;;;12.30;99.90;;;;;;5016198;28;20633;-82
2023/05/02 02:10:39;;;;;;;3.85;2.20;;;12.30;99.90;;;;;;5015564;28;20241;-82
2023/05/02 02:13:12;;;;;;;3.95;2.10;;;12.20;99.90;;;;;;5015837;28;20174;-83
2023/05/02 02:15:40;;;;;;;3.05;1.90;;;12.20;99.90;;;;;;5030727;28;20183;-82
2023/05/02 02:18:13;;;;;;;8.07;2.50;;;12.30;99.90;;;;;;5016029;28;20179;-82
2023/05/02 02:20:42;;;;;;;2.75;1.85;;;12.20;99.90;;;;;;5015877;28;20175;-82
2023/05/02 02:23:09;;;;;;;10.05;2.53;;;12.20;99.90;;;;;;5015688;28;20186;-83
2023/05/02 02:25:36;;;;;;;3.38;2.15;;;12.20;99.90;;;;;;5015694;28;20182;-82
2023/05/02 02:28:02;;;;;;;5.28;2.50;;;12.20;99.90;;;;;;5015519;28;20189;-82
2023/05/02 02:30:28;;;;;;;4.85;2.33;;;12.20;99.90;;;;;;5014780;28;20270;-83
2023/05/02 02:32:54;;;;;;;5.47;2.40;;;12.20;99.90;;;;;;5014408;28;20171;-83
2023/05/02 02:35:20;;;;;;;4.70;2.58;;;12.10;99.90;;;;;;5015568;28;20218;-82
2023/05/02 02:38:01;;;;;;;4.93;3.08;;;12.10;99.90;;;;;;5030619;28;20230;-83
2023/05/02 02:40:28;;;;;;;6.28;3.00;;;12.10;99.90;;;;;;5015411;28;20612;-82
2023/05/02 02:43:09;;;;;;;6.78;3.80;;;12.10;99.90;;;;;;5014187;28;20187;-82
2023/05/02 02:45:41;;;;;;;8.00;3.95;;;12.10;99.90;;;;;;5015161;28;20222;-82
2023/05/02 02:48:26;;;;;;;7.03;4.28;;;12.00;99.90;;;;;;5014131;28;20202;-82
2023/05/02 02:51:14;;;;;;;10.02;3.95;;;12.00;99.90;;;;;;5013830;28;20186;-82
2023/05/02 02:54:06;;;;;;;6.47;4.03;;;11.80;99.90;;;;;;5015156;28;20151;-82
2023/05/02 02:56:39;;;;;;;6.60;4.13;;;11.80;99.90;;;;;;5014113;28;20246;-82
2023/05/02 02:59:23;;;;;;;6.28;3.85;;;11.80;99.90;;;;;;5014536;28;20225;-82
2023/05/02 03:02:01;;;;;;;6.75;3.70;;;11.70;99.90;;;;;;5015078;28;20163;-82
2023/05/02 03:04:30;;;;;;;7.53;3.88;;;11.70;99.90;;;;;;5013769;28;20685;-82
2023/05/02 03:06:56;;;;;;;9.25;3.83;;;11.70;99.90;;;;;;5013710;28;20191;-82
2023/05/02 03:09:22;;;;;;;5.95;3.30;;;11.80;99.90;;;;;;5013510;28;20171;-82
2023/05/02 03:11:47;;;;;;;5.40;3.25;;;11.80;99.90;;;;;;5013283;28;20277;-82
2023/05/02 03:14:13;;;;;;;5.70;3.50;;;11.80;99.90;;;;;;5014407;28;20246;-82
2023/05/02 03:16:40;;;;;;;7.35;3.63;;;11.70;99.90;;;;;;5013515;28;20211;-83
2023/05/02 03:19:07;;;;;;;5.63;3.22;;;11.70;99.90;;;;;;5013429;28;20179;-83
2023/05/02 03:21:34;;;;;;;5.90;3.30;;;11.70;99.90;;;;;;5013225;28;20522;-82
2023/05/02 03:24:01;;;;;;;7.18;3.15;;;11.70;99.90;;;;;;5013383;28;20636;-83
2023/05/02 03:26:27;;;;;;;5.68;3.33;;;11.70;99.90;;;;;;5013365;28;20265;-82
2023/05/02 03:28:54;;;;;;;5.95;3.15;;;11.70;99.90;;;;;;5013288;28;20233;-83
2023/05/02 03:31:20;;;;;;;7.07;3.60;;;11.70;99.90;;;;;;5012977;28;20190;-83
2023/05/02 03:33:46;;;;;;;13.50;4.85;;;11.60;99.90;;;;;;5014479;28;20167;-82
2023/05/02 03:36:13;;;;;;;8.10;4.30;;;11.40;99.90;;;;;;5029516;28;20257;-82
2023/05/02 03:38:38;;;;;;;13.85;5.25;;;11.40;99.90;;;;;;5014480;28;20171;-82
2023/05/02 03:41:04;;;;;;;9.90;5.68;;;11.40;99.90;;;;;;5014355;28;20187;-82
2023/05/02 03:43:31;;;;;;;8.85;5.85;;;11.30;99.90;;;;;;5014182;28;20167;-82
2023/05/02 03:45:56;;;;;;;13.23;6.50;;;11.20;99.90;;;;;;5012889;28;20206;-82
2023/05/02 03:48:22;;;;;;;12.85;5.68;;;11.30;99.90;;;;;;5012893;28;20602;-82
2023/05/02 03:50:49;;;;;;;11.43;6.88;;;11.20;99.90;;;;;;5012941;28;20190;-82
2023/05/02 03:53:15;;;;;;;11.05;6.72;;;11.20;99.90;;;;;;5014165;28;20167;-82
2023/05/02 03:55:44;;;;;;;10.02;7.20;;;11.20;99.90;;;;;;5014130;28;20185;-81
2023/05/02 03:58:10;;;;;;;12.10;7.97;;;11.10;99.90;;;;;;5014282;28;20183;-83
2023/05/02 04:00:37;;;;;;;12.43;7.65;;;11.10;99.90;;;;;;5013308;28;20223;-82
2023/05/02 04:03:03;;;;;;;15.80;8.50;;;11.20;99.90;;;;;;5013843;28;20171;-82
2023/05/02 04:05:28;;;;;;;11.95;8.23;;;11.20;99.90;;;;;;5013916;28;20175;-83
2023/05/02 04:07:57;;;;;;;14.02;9.18;;;11.20;99.90;;;;;;5028978;28;20175;-82
2023/05/02 04:10:23;;;;;;;16.23;10.02;;;11.20;99.90;;;;;;5013609;28;20179;-82
2023/05/02 04:12:49;;;;;;;15.05;9.88;;;11.20;99.90;;;;;;5013894;28;20171;-82
2023/05/02 04:15:14;;;;;;;15.55;9.93;;;11.20;99.90;;;;;;5012423;28;20179;-82
2023/05/02 04:17:40;;;;;;;19.63;10.90;;;11.20;99.90;;;;;;5012485;28;20222;-82
2023/05/02 04:20:06;;;;;;;18.65;11.80;;;11.20;99.90;;;;;;5028934;28;20179;-81
2023/05/02 04:22:33;;;;;;;15.75;10.80;;;11.20;99.90;;;;;;5013718;28;20167;-81
2023/05/02 04:24:59;;;;;;;17.05;11.90;;;11.20;99.90;;;;;;5013861;28;20175;-82
2023/05/02 04:27:25;;;;;;;21.30;12.98;;;11.20;99.90;;;;;;5012571;28;20205;-81
2023/05/02 04:29:52;;;;;;;17.65;12.55;;;11.20;99.90;;;;;;5012131;28;20218;-82
2023/05/02 04:32:18;;;;;;;16.08;12.30;;;11.20;99.90;;;;;;5013591;28;20179;-82
2023/05/02 04:34:44;;;;;;;18.83;12.82;;;11.20;99.90;;;;;;5013888;28;20164;-82
2023/05/02 04:37:09;;;;;;;16.48;11.98;;;11.20;99.90;;;;;;5025268;28;20258;-82
2023/05/02 04:39:35;;;;;;;19.30;12.45;;;11.20;99.90;;;;;;5014705;28;20183;-81
2023/05/02 04:42:01;;;;;;;18.60;12.23;;;11.20;99.90;;;;;;5013503;28;20179;-82
2023/05/02 04:44:27;;;;;;;19.50;12.05;;;11.30;99.90;;;;;;5012087;28;20256;-82
2023/05/02 04:46:53;;;;;;;18.48;12.40;;;11.30;99.90;;;;;;5011821;28;20189;-82
2023/05/02 04:49:18;;;;;;;17.70;12.38;;;11.20;99.90;;;;;;5013480;28;20522;-82
2023/05/02 04:51:44;;;;;;;18.40;12.77;;;11.30;99.90;;;;;;5009848;28;20233;-81
2023/05/02 04:54:11;;;;;;;21.27;12.73;;;11.20;99.90;;;;;;5006162;28;20191;-82
2023/05/02 04:56:37;;;;;;;17.92;12.63;;;11.30;99.90;;;;;;4994747;28;20211;-82
2023/05/02 04:59:03;;;;;;;23.38;14.45;;;11.30;99.90;;;;;;4994499;28;20227;-82
2023/05/02 05:01:28;;;;;;;20.33;13.60;;;11.30;99.90;;;;;;5028277;28;20513;-82
2023/05/02 05:03:54;;;;;;;19.58;14.43;;;11.30;99.90;;;;;;5011840;28;20214;-81
2023/05/02 05:06:21;;;;;;;18.58;13.00;;;11.40;99.90;;;;;;5013490;28;20571;-81
2023/05/02 05:08:47;;;;;;;21.25;13.68;;;11.30;99.90;;;;;;5013481;28;20239;-82
2023/05/02 05:11:13;;;;;;;20.63;13.27;;;11.40;99.90;;;;;;5012846;28;20183;-82
2023/05/02 05:13:39;;;;;;;19.65;13.88;;;11.30;99.90;;;;;;5011990;28;20183;-82
2023/05/02 05:16:05;;;;;;;23.02;14.38;;;11.40;99.90;;;;;;5011690;28;20258;-82
2023/05/02 05:18:31;;;;;;;22.15;14.93;;;11.40;99.90;;;;;;5028427;28;20190;-81
2023/05/02 05:20:56;;;;;;;23.75;15.25;;;11.40;99.90;;;;;;5016076;28;20190;-81
2023/05/02 05:23:22;;;;;;;21.85;13.90;;;11.40;99.90;;;;;;5015487;28;20685;-81
2023/05/02 05:25:48;;;;;;;22.15;15.13;;;11.40;99.90;;;;;;5016843;28;20259;-81
2023/05/02 05:28:14;;;;;;;25.15;15.15;;;11.40;99.90;;;;;;5016998;28;20183;-81
2023/05/02 05:30:39;;;;;;;21.65;14.80;;;11.40;99.90;;;;;;5015172;28;20299;-82
2023/05/02 05:33:05;;;;;;;18.50;13.48;;;11.50;99.90;;;;;;5016570;28;20176;-82
2023/05/02 05:35:31;;;;;;;18.15;13.32;;;11.40;99.90;;;;;;5016879;28;20168;-81
2023/05/02 05:37:57;;;;;;;23.65;15.05;;;11.50;99.90;;;;;;5031806;28;20215;-82
2023/05/02 05:40:23;;;;;;;27.23;15.30;;;11.40;99.90;;;;;;5031913;28;20517;-81
2023/05/02 05:42:48;;;;;;;29.52;16.52;;;11.30;99.90;;;;;;5015065;28;20180;-81
2023/05/02 05:45:16;;;;;;;27.08;16.58;;;11.30;99.90;;;;;;5031481;28;20253;-82
2023/05/02 05:47:42;;;;;;;26.08;16.00;;;11.10;99.90;;;;;;5031747;28;20252;-81
2023/05/02 05:50:08;;;;;;;23.80;15.00;;;11.10;99.90;;;;;;5016352;28;20176;-81
2023/05/02 05:52:33;;;;;;;22.23;14.60;;;11.10;99.90;;;;;;5016353;28;20498;-83
2023/05/02 05:54:59;;;;;;;25.58;16.48;;;11.00;99.90;;;;;;5015242;28;20179;-82
2023/05/02 05:57:25;;;;;;;24.98;16.77;;;11.00;99.90;;;;;;5014840;28;20217;-82
2023/05/02 05:59:50;;;;;;;22.45;14.55;;;11.00;99.90;;;;;;5014469;28;20334;-82
2023/05/02 06:02:18;;;;;;;24.73;15.32;;;11.00;99.90;;;;;;5014853;28;20195;-82
2023/05/02 06:04:45;;;;;;;24.17;14.52;;;11.00;99.90;;;;;;5015014;28;20537;-82
2023/05/02 06:07:11;;;;;;;22.17;14.05;;;11.00;99.90;;;;;;5015006;28;20537;-81
2023/05/02 06:09:37;;;;;;;21.08;13.18;;;11.00;99.90;;;;;;5016026;28;20180;-82
2023/05/02 06:12:02;;;;;;;20.23;12.90;;;10.90;99.90;;;;;;5015563;28;20175;-83
2023/05/02 06:14:28;;;;;;;17.50;9.93;;;10.90;99.90;;;;;;5016082;28;20442;-82
2023/05/02 06:16:54;;;;;;;10.07;7.63;;;10.90;99.90;;;;;;5015644;28;20657;-83
2023/05/02 06:19:19;;;;;;;10.07;6.32;;;10.80;99.90;;;;;;5015842;28;20183;-82
2023/05/02 06:21:45;;;;;;;7.10;4.77;;;10.70;99.90;;;;;;5015551;28;20175;-82
2023/05/02 06:24:11;;;;;;;6.50;4.45;;;10.60;99.90;;;;;;5014559;28;20179;-82
2023/05/02 06:26:36;;;;;;;7.83;4.00;;;10.50;99.90;;;;;;5014962;28;20183;-83
2023/05/02 06:29:02;;;;;;;5.28;3.25;;;10.50;99.90;;;;;;5015544;28;20640;-81
2023/05/02 06:31:28;;;;;;;6.65;3.85;;;10.40;99.90;;;;;;5015349;28;20310;-82
2023/05/02 06:33:55;;;;;;;6.90;3.30;;;10.40;99.90;;;;;;5014487;28;20259;-84
2023/05/02 06:36:20;;;;;;;5.32;2.80;;;10.30;99.90;;;;;;5014335;28;20222;-82
2023/05/02 06:38:47;;;;;;;4.57;2.83;;;10.10;99.90;;;;;;5014313;28;20265;-82
2023/05/02 06:41:16;;;;;;;3.40;2.40;;;10.10;99.90;;;;;;5013719;28;20182;-81
2023/05/02 06:43:42;;;;;;;4.23;1.97;;;10.10;99.90;;;;;;5013594;28;20481;-82
2023/05/02 06:46:08;;;;;;;2.80;1.60;;;10.00;99.90;;;;;;5015189;28;20212;-84
2023/05/02 06:48:36;;;;;;;3.53;1.97;;;10.10;99.90;;;;;;5015359;28;20237;-82
2023/05/02 06:51:04;;;;;;;2.27;1.27;;;10.00;99.90;;;;;;5010918;28;20226;-82
2023/05/02 06:53:31;;;;;;;2.63;1.50;;;10.10;99.90;;;;;;5010608;28;20184;-82
2023/05/02 06:55:56;;;;;;;2.33;1.10;;;10.20;99.90;;;;;;5009073;28;20176;-81
2023/05/02 06:58:22;;;;;;;3.33;1.30;;;10.30;99.90;;;;;;4995086;28;20187;-81
2023/05/02 07:00:49;;;;;;;2.07;1.13;;;10.30;99.90;;;;;;5010983;28;20554;-80
2023/05/02 07:03:15;;;;;;;3.33;1.25;;;10.40;99.90;;;;;;5014459;28;20171;-82
2023/05/02 07:05:40;;;;;;;4.23;1.30;;;10.40;99.90;;;;;;5015216;28;20193;-81
2023/05/02 07:08:06;;;;;;;3.77;1.50;;;10.40;99.90;;;;;;5015045;28;20695;-81
2023/05/02 07:10:32;;;;;;;5.53;1.70;;;10.40;99.90;;;;;;5013544;28;20202;-82
2023/05/02 07:12:58;;;;;;;6.33;1.77;;;10.30;99.90;;;;;;5014738;28;20182;-81
2023/05/02 07:15:23;;;;;;;6.65;2.08;;;10.30;99.90;;;;;;5014377;28;20179;-81
2023/05/02 07:17:49;;;;;;;4.97;1.70;;;10.20;99.90;;;;;;5014672;28;20211;-82
2023/05/02 07:20:15;;;;;;;6.03;2.03;;;10.10;99.90;;;;;;5014852;28;20171;-82
2023/05/02 07:22:42;;;;;;;10.00;2.57;;;10.00;99.90;;;;;;5014105;28;20183;-80
2023/05/02 07:25:08;;;;;;;10.13;2.20;;;10.10;99.90;;;;;;5014667;28;20213;-81
2023/05/02 07:27:34;;;;;;;9.10;2.30;;;10.10;99.90;;;;;;5014585;28;20179;-82
2023/05/02 07:30:01;;;;;;;8.47;2.60;;;10.10;99.90;;;;;;5014114;28;20207;-81
2023/05/02 07:32:27;;;;;;;9.53;2.37;;;10.10;99.90;;;;;;5012818;28;20194;-81
2023/05/02 07:34:53;;;;;;;7.27;2.40;;;10.10;99.90;;;;;;5014454;28;20491;-81
2023/05/02 07:37:20;;;;;;;11.50;2.20;;;10.20;99.90;;;;;;5014528;28;20301;-81
2023/05/02 07:39:45;;;;;;;7.80;3.00;;;10.00;99.90;;;;;;5014383;28;20183;-83
2023/05/02 07:42:11;;;;;;;9.50;2.70;;;10.00;99.90;;;;;;5012149;28;20191;-81
2023/05/02 07:44:37;;;;;;;10.90;2.83;;;10.00;99.90;;;;;;5014241;28;20183;-81
2023/05/02 07:47:03;;;;;;;9.10;2.60;;;10.00;99.90;;;;;;5012505;28;20199;-82
2023/05/02 07:49:29;;;;;;;9.50;2.43;;;10.10;99.90;;;;;;5014221;28;20183;-81
2023/05/02 07:51:55;;;;;;;8.97;2.50;;;10.20;99.90;;;;;;5013991;28;20183;-81
2023/05/02 07:54:22;;;;;;;21.00;6.63;;;10.20;99.90;;;;;;5012912;28;20230;-81
2023/05/02 07:56:50;;;;;;;13.33;4.23;;;10.20;99.90;;;;;;5012623;28;20305;-81
2023/05/02 07:59:16;;;;;;;16.97;3.30;;;10.30;99.90;;;;;;5013555;28;20230;-81
2023/05/02 08:01:43;;;;;;;10.70;2.73;;;10.20;99.90;;;;;;5028579;28;20521;-81
2023/05/02 08:04:11;;;;;;;10.40;2.75;;;10.20;99.90;;;;;;5013547;28;20182;-81
2023/05/02 08:06:37;;;;;;;8.65;2.10;;;10.20;99.90;;;;;;5012487;28;20606;-81
2023/05/02 08:09:03;;;;;;;11.67;2.80;;;10.20;99.90;;;;;;5013588;28;20262;-80
2023/05/02 08:11:29;;;;;;;8.13;2.45;;;10.20;99.90;;;;;;5013549;28;20179;-80
2023/05/02 08:13:55;;;;;;;14.17;3.03;;;10.30;99.90;;;;;;5013333;28;20249;-82
2023/05/02 08:16:20;;;;;;;13.40;2.55;;;10.30;99.90;;;;;;5012902;28;20202;-80
2023/05/02 08:18:46;;;;;;;9.77;2.30;;;10.30;99.90;;;;;;5012537;28;20202;-80
2023/05/02 08:21:12;;;;;;;8.83;2.57;;;10.30;99.90;;;;;;5013817;28;20202;-81
2023/05/02 08:23:40;;;;;;;10.87;2.80;;;10.40;99.90;;;;;;5012455;28;20183;-82
2023/05/02 08:26:06;;;;;;;12.77;2.43;;;10.60;99.90;;;;;;5012174;28;20270;-80
2023/05/02 08:28:31;;;;;;;11.30;2.90;;;10.50;99.90;;;;;;5012556;28;20266;-81
2023/05/02 08:30:57;;;;;;;8.55;2.35;;;10.60;99.90;;;;;;5013399;28;20621;-82
2023/05/02 08:33:23;;;;;;;6.75;2.38;;;10.70;99.90;;;;;;5013610;28;20186;-81
2023/05/02 08:35:48;;;;;;;8.68;2.10;;;10.80;99.90;;;;;;5013695;28;20191;-82
2023/05/02 08:38:14;;;;;;;10.60;2.72;;;10.90;99.90;;;;;;5013387;28;20563;-81
2023/05/02 08:40:40;;;;;;;8.68;2.25;;;10.90;99.90;;;;;;5013713;28;20206;-82
2023/05/02 08:43:06;;;;;;;18.73;3.60;;;10.90;99.90;;;;;;5012169;28;20684;-82
2023/05/02 08:45:40;;;;;;;12.38;2.63;;;11.00;99.90;;;;;;5012140;28;20218;-81
2023/05/02 08:48:09;;;;;;;7.90;2.50;;;11.00;99.90;;;;;;5012531;28;20524;-82
2023/05/02 08:50:41;;;;;;;6.80;2.35;;;11.00;99.90;;;;;;5013089;28;20217;-81
2023/05/02 08:53:08;;;;;;;16.13;2.80;;;11.10;99.90;;;;;;5013098;28;20617;-82
2023/05/02 08:55:38;;;;;;;13.30;2.40;;;11.10;99.90;;;;;;5015267;28;20187;-82
2023/05/02 08:58:05;;;;;;;11.52;2.40;;;11.10;99.90;;;;;;5016488;28;20229;-80
2023/05/02 09:00:32;;;;;;;10.60;2.60;;;10.90;99.90;;;;;;5016906;28;20243;-81
2023/05/02 09:03:15;;;;;;;8.80;2.80;;;10.90;99.90;;;;;;5015759;28;20190;-82
2023/05/02 09:05:41;;;;;;;14.05;2.90;;;10.80;99.90;;;;;;5017382;28;20170;-81
2023/05/02 09:08:08;;;;;;;11.07;2.90;;;11.00;99.90;;;;;;5015749;28;20229;-81
2023/05/02 09:10:37;;;;;;;13.18;2.60;;;11.10;99.90;;;;;;5017312;28;20175;-81
2023/05/02 09:13:31;;;;;;;12.23;2.70;;;11.10;99.90;;;;;;5017065;28;20562;-82
2023/05/02 09:16:06;;;;;;;8.75;2.70;;;11.20;99.90;;;;;;5016807;28;20629;-81
2023/05/02 09:18:44;;;;;;;9.30;2.15;;;11.00;99.90;;;;;;5031996;28;20210;-81
2023/05/02 09:21:15;;;;;;;9.32;2.30;;;11.00;99.90;;;;;;5015595;28;20171;-81
2023/05/02 09:23:46;;;;;;;9.68;2.42;;;11.00;99.90;;;;;;5016798;28;20644;-81
2023/05/02 09:26:16;;;;;;;8.20;1.92;;;11.00;99.90;;;;;;5017003;28;20160;-80
2023/05/02 09:28:47;;;;;;;9.32;2.70;;;10.90;99.90;;;;;;5016859;28;20194;-81
2023/05/02 09:31:19;;;;;;;9.90;2.70;;;10.70;99.90;;;;;;5016535;28;20203;-81
2023/05/02 09:33:45;;;;;;;14.25;2.88;;;10.70;99.90;;;;;;5015610;28;20214;-81
2023/05/02 09:36:13;;;;;;;14.38;2.05;;;10.70;99.90;;;;;;5015493;28;20218;-81
2023/05/02 09:38:43;;;;;;;7.75;2.30;;;10.60;99.90;;;;;;5015367;28;20187;-80
2023/05/02 09:41:09;;;;;;;7.25;1.98;;;10.60;99.90;;;;;;5016317;28;20179;-80
2023/05/02 09:43:35;;;;;;;6.45;1.67;;;10.60;99.90;;;;;;5015053;28;20176;-81
2023/05/02 09:46:10;;;;;;;8.77;2.17;;;10.60;99.90;;;;;;5015214;28;20176;-81
2023/05/02 09:49:05;;;;;;;6.25;1.50;;;10.80;99.90;;;;;;5016630;28;20194;-80
2023/05/02 09:51:30;;;;;;;9.32;1.60;;;11.00;99.90;;;;;;5003766;28;20187;-81
2023/05/02 09:53:56;;;;;;;5.45;1.50;;;11.00;99.90;;;;;;5016395;28;20741;-81
2023/05/02 09:56:22;;;;;;;8.77;2.00;;;11.30;99.90;;;;;;5015038;28;20195;-80
2023/05/02 09:58:48;;;;;;;7.57;2.30;;;11.40;99.90;;;;;;5014799;28;20183;-81
2023/05/02 10:01:15;;;;;;;7.13;2.58;;;11.40;99.90;;;;;;5015966;28;20502;-80
2023/05/02 10:03:45;;;;;;;9.43;2.15;;;11.30;99.90;;;;;;5014699;28;20194;-81
2023/05/02 10:06:12;;;;;;;5.13;1.55;;;11.30;99.90;;;;;;5015784;28;20163;-81
2023/05/02 10:08:38;;;;;;;5.65;1.73;;;11.20;99.90;;;;;;5016179;28;20179;-81
2023/05/02 10:11:07;;;;;;;6.90;1.85;;;11.30;99.90;;;;;;5016128;28;20171;-81
2023/05/02 10:13:38;;;;;;;7.82;1.70;;;11.40;99.90;;;;;;5014815;28;20606;-81
2023/05/02 10:16:06;;;;;;;5.82;1.58;;;11.40;99.90;;;;;;5015655;28;20199;-80
2023/05/02 10:18:42;;;;;;;6.18;1.83;;;11.50;99.90;;;;;;5015934;28;20233;-80
2023/05/02 10:21:10;;;;;;;9.07;2.28;;;11.20;99.90;;;;;;5031049;28;20233;-80
2023/05/02 10:23:41;;;;;;;4.80;1.80;;;11.20;99.90;;;;;;5012396;28;20295;-82
2023/05/02 10:26:07;;;;;;;4.30;1.77;;;11.20;99.90;;;;;;5015589;28;20230;-86
2023/05/02 10:28:33;;;;;;;7.25;1.50;;;11.20;99.90;;;;;;5015583;28;20172;-81
2023/05/02 10:31:01;;;;;;;4.97;1.75;;;11.10;99.90;;;;;;5014965;28;20282;-80
2023/05/02 10:33:30;;;;;;;9.60;2.42;;;11.10;99.90;;;;;;5015444;28;20176;-80
2023/05/02 10:35:56;;;;;;;8.57;1.70;;;11.10;99.90;;;;;;5014359;28;20194;-79
2023/05/02 10:38:23;;;;;;;5.38;1.95;;;11.20;99.90;;;;;;5015583;28;20179;-85
2023/05/02 10:41:17;;;;;;;4.22;1.70;;;11.20;99.90;;;;;;5030516;28;20619;-79
2023/05/02 10:43:48;;;;;;;9.68;1.90;;;11.20;99.90;;;;;;5015237;28;20178;-81
2023/05/02 10:46:34;;;;;;;7.78;2.35;;;11.20;99.90;;;;;;5015098;28;20574;-82
2023/05/02 10:49:10;;;;;;;5.05;1.75;;;11.30;99.90;;;;;;5015425;28;20206;-80
2023/05/02 10:51:41;;;;;;;7.30;2.05;;;11.40;99.90;;;;;;5013846;28;20249;-80
2023/05/02 10:54:19;;;;;;;5.85;1.88;;;11.50;99.90;;;;;;5013775;28;20171;-80
2023/05/02 10:57:03;;;;;;;5.05;1.63;;;11.80;99.90;;;;;;5030211;28;20203;-81
2023/05/02 10:59:40;;;;;;;5.50;1.88;;;12.10;99.90;;;;;;5030036;28;20277;-81
2023/05/02 11:02:29;;;;;;;9.52;2.25;;;12.20;99.90;;;;;;5014496;28;20688;-80
2023/05/02 11:05:06;;;;;;;14.13;2.30;;;12.40;99.90;;;;;;5030167;28;20190;-81
2023/05/02 11:07:36;;;;;;;6.03;1.98;;;12.30;99.60;;;;;;5015165;28;20601;-80
2023/05/02 11:10:17;;;;;;;8.73;2.55;;;11.90;99.80;;;;;;5014815;28;20190;-80
2023/05/02 11:12:53;;;;;;;7.72;2.00;;;11.80;99.90;;;;;;5014623;28;20526;-81
2023/05/02 11:15:28;;;;;;;9.98;2.13;;;11.60;99.90;;;;;;5013477;28;20266;-80
2023/05/02 11:18:06;;;;;;;6.00;2.00;;;11.50;99.90;;;;;;5011241;28;20225;-82
2023/05/02 11:20:33;;;;;;;8.93;2.43;;;11.30;99.90;;;;;;5016507;28;20183;-82
2023/05/02 11:23:24;;;;;;;9.32;2.05;;;11.30;99.90;;;;;;5003070;28;20195;-81
2023/05/02 11:25:59;;;;;;;4.80;2.10;;;11.40;99.90;;;;;;5012803;28;20167;-81
2023/05/02 11:28:39;;;;;;;7.47;2.13;;;11.30;99.90;;;;;;5014310;28;20187;-80
2023/05/02 11:31:09;;;;;;;7.00;2.28;;;11.40;99.90;;;;;;5012100;28;20278;-79
2023/05/02 11:33:35;;;;;;;9.38;2.05;;;11.60;99.40;;;;;;5012783;28;20637;-80
2023/05/02 11:36:01;;;;;;;10.07;2.35;;;11.60;99.90;;;;;;5014308;28;20206;-80
2023/05/02 11:38:36;;;;;;;11.70;2.17;;;11.70;99.90;;;;;;5014625;28;20222;-80
2023/05/02 11:41:03;;;;;;;10.05;2.50;;;12.00;99.90;;;;;;5014288;28;20174;-80
2023/05/02 11:43:29;;;;;;;7.32;2.30;;;12.20;98.80;;;;;;5014087;28;20233;-79
2023/05/02 11:45:56;;;;;;;5.50;2.13;;;12.20;99.90;;;;;;5014029;28;20183;-80
2023/05/02 11:48:26;;;;;;;6.68;1.98;;;12.10;98.30;;;;;;5012926;28;20286;-80
2023/05/02 11:50:55;;;;;;;5.68;2.17;;;12.20;99.30;;;;;;5013795;28;20241;-80
2023/05/02 11:53:23;;;;;;;10.07;1.88;;;12.60;99.90;;;;;;5014057;28;20179;-79
2023/05/02 11:55:51;;;;;;;10.75;2.00;;;13.20;98.50;;;;;;5014170;28;20272;-80
2023/05/02 11:58:22;;;;;;;5.40;1.90;;;13.40;97.00;;;;;;5014078;28;20641;-79
2023/05/02 12:00:48;;;;;;;4.00;1.90;;;13.30;96.90;;;;;;5013518;28;20247;-81
2023/05/02 12:03:31;;;;;;;8.60;2.13;;;12.90;95.70;;;;;;5012204;28;20179;-81
2023/05/02 12:06:08;;;;;;;12.57;2.22;;;12.80;95.70;;;;;;5012090;28;20167;-80
2023/05/02 12:08:34;;;;;;;10.90;2.20;;;12.40;96.50;;;;;;5014083;28;20171;-80
2023/05/02 12:11:00;;;;;;;6.72;2.28;;;12.20;97.00;;;;;;5014027;28;20232;-80
2023/05/02 12:13:26;;;;;;;7.97;2.08;;;12.30;96.70;;;;;;5013908;28;20236;-80
2023/05/02 12:15:53;;;;;;;5.88;2.15;;;13.00;98.60;;;;;;5013666;28;20180;-80
2023/05/02 12:18:24;;;;;;;5.93;1.80;;;13.60;98.00;;;;;;5013964;28;20207;-81
2023/05/02 12:20:55;;;;;;;10.93;2.83;;;14.20;94.50;;;;;;5012578;28;20514;-80
2023/05/02 12:23:23;;;;;;;6.32;2.38;;;14.20;94.00;;;;;;5013719;28;20163;-80
2023/05/02 12:25:49;;;;;;;9.25;2.40;;;14.10;96.00;;;;;;5013819;28;20246;-82
2023/05/02 12:28:19;;;;;;;6.68;2.15;;;14.60;97.00;;;;;;5013647;28;20682;-79
2023/05/02 12:30:47;;;;;;;11.88;2.35;;;14.90;93.50;;;;;;5019872;28;20246;-80
2023/05/02 12:33:12;;;;;;;8.23;2.08;;;14.80;93.90;;;;;;5020227;28;20175;-79
2023/05/02 12:35:38;;;;;;;8.85;3.00;;;14.90;90.10;;;;;;5020157;28;20183;-79
2023/05/02 12:38:12;;;;;;;4.72;2.05;;;14.40;89.90;;;;;;5020351;28;20207;-81
2023/05/02 12:40:44;;;;;;;8.23;2.38;;;13.90;90.10;;;;;;5020112;28;20170;-79
2023/05/02 12:43:10;;;;;;;6.28;2.30;;;13.50;93.90;;;;;;5020059;28;20163;-80
2023/05/02 12:45:36;;;;;;;6.50;1.90;;;13.70;93.20;;;;;;5020329;28;20181;-79
2023/05/02 12:48:24;;;;;;;5.63;2.28;;;14.20;93.10;;;;;;5019910;28;20170;-80
2023/05/02 12:50:51;;;;;;;9.65;2.50;;;14.50;90.20;;;;;;5018964;28;20584;-79